Time;durP1;ratioP1;P1;durP2;ratioP2;P2;SDS_P1;SDS_P2;PMS_P1;PMS_P2;Temp;Humidity;BMP_temperature;BMP_pressure;BME280_temperature;BME280_humidity;BME280_pressure;Samples;Min_cycle;Max_cycle;Signal;HPM_P1;HPM_P2
2022/11/05 00:17:16;;;;;;;0.70;0.40;;;;;;;7.42;100.00;97568.38;18559445;32;20071;-65
2022/11/05 00:27:19;;;;;;;0.90;0.40;;;;;;;7.44;100.00;97576.19;18570294;32;20107;-65
2022/11/05 00:37:21;;;;;;;1.57;0.50;;;;;;;7.44;100.00;97579.72;18563001;32;20056;-65
2022/11/05 00:57:45;;;;;;;0.87;0.50;;;;;;;7.47;100.00;97610.69;18365445;32;20049;-65
2022/11/05 01:07:47;;;;;;;1.50;0.57;;;;;;;7.52;100.00;97620.69;18351770;32;20099;-65
2022/11/05 01:17:51;;;;;;;1.33;0.50;;;;;;;7.55;100.00;97633.63;18399776;32;20096;-65
2022/11/05 01:27:53;;;;;;;0.60;0.30;;;;;;;7.54;100.00;97629.34;18550760;32;20104;-65
2022/11/05 01:37:56;;;;;;;0.63;0.30;;;;;;;7.56;100.00;97654.09;18561127;32;20116;-65
2022/11/05 01:48:12;;;;;;;0.97;0.40;;;;;;;7.60;100.00;97633.69;18565359;32;20383;-64
2022/11/05 01:58:20;;;;;;;0.70;0.30;;;;;;;7.62;100.00;97642.34;18564317;32;20037;-65
2022/11/05 02:08:52;;;;;;;0.80;0.50;;;;;;;7.62;100.00;97637.78;18564772;32;20052;-65
2022/11/05 02:19:48;;;;;;;1.20;0.30;;;;;;;7.60;100.00;97647.16;18563666;32;20385;-64
2022/11/05 02:30:03;;;;;;;0.60;0.40;;;;;;;7.62;100.00;97658.50;18487958;32;20125;-62
2022/11/05 02:40:18;;;;;;;1.30;0.40;;;;;;;7.66;100.00;97659.63;18487858;32;20064;-65
2022/11/05 02:50:26;;;;;;;0.68;0.20;;;;;;;7.70;100.00;97670.69;18487282;32;20182;-64
2022/11/05 03:00:51;;;;;;;0.50;0.30;;;;;;;7.69;100.00;97666.34;18488623;32;20412;-65
2022/11/05 03:11:01;;;;;;;;;;;;;;;7.70;100.00;97679.59;18496158;32;20052;-64
2022/11/05 03:21:08;;;;;;;1.13;0.23;;;;;;;7.71;100.00;97689.25;18495845;32;20340;-65
2022/11/05 03:31:13;;;;;;;1.60;0.20;;;;;;;7.70;100.00;97678.75;18495420;32;20053;-62
2022/11/05 03:41:16;;;;;;;;;;;;;;;7.68;100.00;97686.28;18495386;32;20108;-62
2022/11/05 03:51:31;;;;;;;0.37;0.27;;;;;;;7.68;100.00;97699.72;18420985;32;19975;-65
2022/11/05 04:01:35;;;;;;;0.50;0.30;;;;;;;7.71;100.00;97726.12;18433039;32;20083;-64
2022/11/05 04:32:20;;;;;;;0.73;0.30;;;;;;;7.83;100.00;97740.28;18431286;32;20091;-65
2022/11/05 04:42:22;;;;;;;1.70;0.60;;;;;;;7.86;100.00;97742.47;18417814;32;20131;-65
2022/11/05 04:52:24;;;;;;;1.20;0.60;;;;;;;7.88;100.00;97753.00;18417051;32;20069;-65
2022/11/05 05:02:27;;;;;;;3.60;1.37;;;;;;;7.89;100.00;97760.00;18474839;32;20057;-62
2022/11/05 05:12:31;;;;;;;2.30;1.40;;;;;;;7.89;100.00;97765.41;18501841;32;20436;-62
2022/11/05 05:22:33;;;;;;;3.03;1.80;;;;;;;7.87;100.00;97772.91;18502054;32;20109;-64
2022/11/05 05:32:36;;;;;;;4.60;2.83;;;;;;;7.88;100.00;97793.38;18487286;32;20483;-65
2022/11/05 05:42:38;;;;;;;6.23;3.43;;;;;;;7.89;100.00;97797.69;18500831;32;20102;-65
2022/11/05 05:52:44;;;;;;;6.00;4.27;;;;;;;7.92;100.00;97813.34;18413733;32;20069;-64
2022/11/05 06:02:46;;;;;;;5.33;4.27;;;;;;;7.90;100.00;97827.06;18425464;32;20119;-64
2022/11/05 06:12:49;;;;;;;5.93;4.37;;;;;;;7.92;100.00;97837.56;18411752;32;20061;-64
2022/11/05 06:22:56;;;;;;;6.40;4.33;;;;;;;7.92;100.00;97853.72;18431771;32;20049;-63
2022/11/05 06:33:05;;;;;;;8.87;5.43;;;;;;;7.94;100.00;97865.09;18433617;32;20522;-64
2022/11/05 06:43:07;;;;;;;8.97;6.67;;;;;;;7.93;100.00;97875.06;18432738;32;20057;-64
2022/11/05 06:53:11;;;;;;;10.47;6.90;;;;;;;7.89;100.00;97894.62;18435515;32;20429;-63
2022/11/05 07:03:14;;;;;;;10.83;7.37;;;;;;;7.85;100.00;97899.66;18554788;32;20395;-64
2022/11/05 07:13:17;;;;;;;13.00;8.40;;;;;;;7.84;100.00;97918.78;18560741;32;20082;-64
2022/11/05 07:23:19;;;;;;;11.70;7.40;;;;;;;7.90;100.00;97942.03;18546391;32;20125;-64
2022/11/05 07:33:22;;;;;;;18.13;9.33;;;;;;;7.94;100.00;97968.22;18569726;32;20067;-64
2022/11/05 07:43:25;;;;;;;12.20;8.20;;;;;;;8.02;100.00;97975.06;18573233;32;20395;-64
2022/11/05 07:53:27;;;;;;;14.27;8.37;;;;;;;8.05;100.00;97996.13;18558212;31;20078;-64
2022/11/05 08:03:29;;;;;;;10.77;6.57;;;;;;;8.09;100.00;98016.09;18369101;32;20065;-63
2022/11/05 08:13:33;;;;;;;9.37;6.60;;;;;;;8.12;100.00;98020.19;18368227;32;20515;-64
2022/11/05 08:23:37;;;;;;;11.37;7.40;;;;;;;8.24;100.00;98028.19;18367741;32;20137;-64
2022/11/05 08:33:40;;;;;;;10.93;7.57;;;;;;;8.53;100.00;98034.31;18528124;32;20097;-64
2022/11/05 08:43:42;;;;;;;10.47;6.87;;;;;;;8.80;100.00;98042.50;18568362;32;20127;-64
2022/11/05 08:53:45;;;;;;;7.20;5.10;;;;;;;8.94;100.00;98055.63;18554132;32;20386;-64
2022/11/05 09:03:51;;;;;;;7.30;5.33;;;;;;;9.14;100.00;98066.69;18554748;32;20044;-65
2022/11/05 09:13:54;;;;;;;8.20;5.27;;;;;;;9.18;100.00;98075.06;18553568;32;20060;-64
2022/11/05 09:23:56;;;;;;;5.33;3.70;;;;;;;9.18;100.00;98083.16;18552964;32;20049;-65
2022/11/05 09:33:59;;;;;;;5.63;4.00;;;;;;;9.33;100.00;98096.88;18552484;32;20145;-64
2022/11/05 09:44:15;;;;;;;6.83;4.10;;;;;;;9.43;100.00;98089.97;18559075;32;20470;-64
2022/11/05 09:54:21;;;;;;;6.73;3.33;;;;;;;9.60;100.00;98090.69;18413145;32;20069;-64
2022/11/05 10:04:29;;;;;;;4.53;3.07;;;;;;;9.90;100.00;98094.78;18425856;32;20087;-64
2022/11/05 10:14:48;;;;;;;3.73;3.20;;;;;;;10.10;100.00;98115.78;18425253;32;20471;-64
2022/11/05 10:24:52;;;;;;;3.47;2.53;;;;;;;10.38;100.00;98134.72;18475191;32;20052;-64
2022/11/05 10:34:57;;;;;;;4.13;2.90;;;;;;;10.26;100.00;98138.34;18496570;32;20063;-64
2022/11/05 10:45:29;;;;;;;4.10;3.03;;;;;;;10.48;100.00;98140.19;18482978;32;20052;-64
2022/11/05 10:55:40;;;;;;;3.78;2.97;;;;;;;10.59;99.54;98149.19;18512570;32;20071;-64
2022/11/05 11:05:42;;;;;;;5.30;3.00;;;;;;;10.84;97.21;98152.09;18560855;32;20098;-64
2022/11/05 11:15:45;;;;;;;3.12;2.60;;;;;;;10.91;94.58;98145.62;18561152;32;20060;-64
2022/11/05 11:25:56;;;;;;;2.95;1.77;;;;;;;10.99;95.29;98155.97;18546308;32;20044;-64
2022/11/05 11:35:59;;;;;;;4.20;2.50;;;;;;;11.27;92.79;98151.28;18421460;32;20073;-64
2022/11/05 11:46:04;;;;;;;4.50;2.10;;;;;;;11.51;96.55;98141.66;18421027;32;20519;-65
2022/11/05 11:56:20;;;;;;;2.65;1.92;;;;;;;11.35;96.23;98146.19;18420665;32;20084;-65
2022/11/05 12:06:34;;;;;;;5.60;2.08;;;;;;;11.51;98.01;98141.66;18532139;32;20091;-65
2022/11/05 12:16:52;;;;;;;3.80;1.70;;;;;;;11.71;88.20;98148.22;18563809;32;20089;-64
2022/11/05 12:27:15;;;;;;;2.70;1.90;;;;;;;11.55;87.08;98138.41;18564205;32;20112;-65
2022/11/05 12:37:24;;;;;;;3.10;1.95;;;;;;;11.53;89.53;98135.97;18569744;32;20049;-64
2022/11/05 12:47:30;;;;;;;3.67;1.73;;;;;;;11.63;85.55;98132.47;18555578;32;20071;-65
2022/11/05 12:57:39;;;;;;;4.57;3.10;;;;;;;11.51;83.74;98128.13;18554583;31;20319;-64
2022/11/05 13:07:59;;;;;;;1.35;0.98;;;;;;;11.34;84.40;98122.06;18554079;32;20052;-65
2022/11/05 13:18:09;;;;;;;2.28;1.40;;;;;;;11.02;80.57;98125.72;18567672;32;20048;-65
2022/11/05 13:28:34;;;;;;;1.12;0.80;;;;;;;10.97;86.74;98117.56;18552170;32;20086;-64
2022/11/05 13:38:59;;;;;;;4.18;1.00;;;;;;;10.65;93.12;98104.91;18566441;32;20109;-65
2022/11/05 13:49:02;;;;;;;1.83;1.15;;;;;;;10.74;95.14;98108.75;18565343;32;20433;-65
2022/11/05 13:59:17;;;;;;;2.12;1.08;;;;;;;11.05;94.92;98117.06;18564931;32;20089;-65
2022/11/05 14:09:24;;;;;;;;;;;;;;;11.24;85.29;98124.75;18550197;32;20064;-64
2022/11/05 14:19:32;;;;;;;3.60;0.82;;;;;;;11.12;87.33;98120.34;18557413;32;20042;-64
2022/11/05 14:29:52;;;;;;;2.78;0.70;;;;;;;11.18;80.66;98130.12;18563482;32;20057;-64
2022/11/05 14:40:00;;;;;;;1.50;0.70;;;;;;;11.06;73.34;98109.75;18562655;32;20053;-64
2022/11/05 14:50:34;;;;;;;1.75;0.90;;;;;;;10.58;84.31;98123.22;18562067;32;20049;-64
2022/11/05 15:00:41;;;;;;;4.20;1.17;;;;;;;10.10;88.54;98118.47;18184018;32;20513;-64
2022/11/05 15:10:48;;;;;;;1.42;1.00;;;;;;;9.87;85.68;98124.16;18168427;32;20067;-64
2022/11/05 15:20:55;;;;;;;2.70;1.23;;;;;;;9.53;93.28;98138.66;18168090;32;20125;-65
2022/11/05 15:31:03;;;;;;;2.37;1.33;;;;;;;9.15;95.50;98148.41;18241618;32;20063;-65
2022/11/05 15:41:15;;;;;;;1.53;1.10;;;;;;;8.74;98.76;98148.66;18430794;32;20065;-64
2022/11/05 15:51:22;;;;;;;1.60;1.13;;;;;;;8.27;100.00;98141.66;18435432;32;20062;-64
2022/11/05 16:01:44;;;;;;;3.23;1.50;;;;;;;7.82;100.00;98137.06;18495927;32;20117;-64
2022/11/05 16:11:47;;;;;;;3.50;1.40;;;;;;;7.41;100.00;98131.75;18506529;32;20441;-64
2022/11/05 16:21:53;;;;;;;2.27;1.50;;;;;;;7.06;100.00;98129.91;18505817;32;20512;-64
2022/11/05 16:31:58;;;;;;;1.60;1.17;;;;;;;6.73;100.00;98134.03;18505492;32;20053;-64
2022/11/05 16:42:12;;;;;;;2.08;1.27;;;;;;;6.43;100.00;98136.81;18504913;32;20095;-64
2022/11/05 16:52:15;;;;;;;3.03;1.40;;;;;;;6.10;100.00;98149.69;18504229;32;20053;-64
2022/11/05 17:02:18;;;;;;;3.97;2.80;;;;;;;5.82;100.00;98149.44;18558483;32;20060;-64
2022/11/05 17:12:21;;;;;;;2.77;2.10;;;;;;;5.52;100.00;98153.75;18566337;32;20061;-64
2022/11/05 17:22:23;;;;;;;5.03;3.27;;;;;;;5.26;100.00;98166.44;18553285;32;20376;-64
2022/11/05 17:32:26;;;;;;;3.30;1.93;;;;;;;5.08;100.00;98161.03;18492000;32;20053;-64
2022/11/05 17:42:29;;;;;;;2.83;1.73;;;;;;;4.85;100.00;98175.06;18491783;32;20546;-64
2022/11/05 17:52:31;;;;;;;2.90;2.07;;;;;;;4.72;100.00;98176.84;18490973;32;20065;-64
2022/11/05 18:02:34;;;;;;;3.67;2.03;;;;;;;4.58;100.00;98175.31;18491459;32;20084;-64
2022/11/05 18:12:38;;;;;;;5.00;3.53;;;;;;;4.40;100.00;98189.47;18499067;32;20403;-64
2022/11/05 18:22:42;;;;;;;7.10;4.13;;;;;;;4.37;100.00;98200.59;18498771;32;20111;-64
2022/11/05 18:32:46;;;;;;;7.67;4.83;;;;;;;4.30;100.00;98187.25;18496813;32;20065;-64
2022/11/05 18:42:49;;;;;;;10.23;4.23;;;;;;;4.41;100.00;98193.75;18497655;32;20069;-64
2022/11/05 18:52:52;;;;;;;6.57;4.73;;;;;;;4.49;100.00;98193.50;18495254;32;20061;-64
2022/11/05 19:02:54;;;;;;;7.27;4.90;;;;;;;4.57;100.00;98190.56;18482648;32;20368;-64
2022/11/05 19:12:57;;;;;;;9.70;7.17;;;;;;;4.65;100.00;98178.75;18486665;32;20111;-64
2022/11/05 19:23:01;;;;;;;8.17;5.87;;;;;;;4.75;100.00;98183.62;18485804;32;20403;-64
2022/11/05 19:33:04;;;;;;;7.33;4.03;;;;;;;4.64;100.00;98198.53;18486246;32;20500;-64
2022/11/05 19:43:07;;;;;;;6.07;3.60;;;;;;;4.43;100.00;98177.47;18479991;32;20102;-65
2022/11/05 19:53:10;;;;;;;7.23;4.60;;;;;;;4.14;100.00;98195.81;18494128;32;20061;-64
2022/11/05 20:03:13;;;;;;;8.70;5.50;;;;;;;3.95;100.00;98195.72;18559785;32;20060;-64
2022/11/05 20:13:16;;;;;;;8.03;5.07;;;;;;;3.79;100.00;98209.59;18559156;32;20083;-64
2022/11/05 20:23:21;;;;;;;6.20;4.57;;;;;;;3.67;100.00;98217.44;18558974;32;20430;-64
2022/11/05 20:33:28;;;;;;;7.83;4.83;;;;;;;3.53;100.00;98200.63;18558304;32;20107;-64
2022/11/05 20:43:31;;;;;;;7.30;4.70;;;;;;;3.37;100.00;98192.06;18563870;32;20073;-64
2022/11/05 20:53:35;;;;;;;8.60;5.23;;;;;;;3.26;100.00;98194.53;18568350;32;20052;-64
2022/11/05 21:03:38;;;;;;;8.70;5.53;;;;;;;3.20;100.00;98205.03;18569135;32;20075;-64
2022/11/05 21:13:41;;;;;;;6.13;4.80;;;;;;;3.02;100.00;98197.66;18568047;32;20085;-64
2022/11/05 21:23:44;;;;;;;8.27;5.10;;;;;;;2.93;100.00;98196.25;18567389;32;20064;-64
2022/11/05 21:33:46;;;;;;;7.73;4.83;;;;;;;2.86;100.00;98204.28;18552798;32;20041;-64
2022/11/05 21:43:56;;;;;;;12.37;5.30;;;;;;;2.79;100.00;98221.34;18566224;32;20409;-64
2022/11/05 22:04:19;;;;;;;6.87;4.90;;;;;;;2.60;100.00;98222.97;18565025;32;20394;-64
2022/11/05 22:14:22;;;;;;;9.60;5.50;;;;;;;2.49;100.00;98232.41;18564066;32;20444;-64
2022/11/05 22:24:27;;;;;;;10.27;5.50;;;;;;;2.49;100.00;98200.38;18563510;32;20077;-64
2022/11/05 22:34:29;;;;;;;5.10;3.33;;;;;;;2.49;100.00;98211.06;18557257;32;20433;-64
2022/11/05 22:44:32;;;;;;;5.63;3.63;;;;;;;2.41;100.00;98209.41;18562005;32;20361;-64
2022/11/05 22:54:34;;;;;;;4.67;3.40;;;;;;;2.24;100.00;98176.97;18547306;32;20052;-64
2022/11/05 23:04:41;;;;;;;6.57;3.73;;;;;;;2.18;100.00;98167.09;18561351;32;20108;-64
2022/11/05 23:14:43;;;;;;;5.23;4.07;;;;;;;2.17;100.00;98130.78;18546925;32;20075;-64
2022/11/05 23:24:46;;;;;;;4.60;3.33;;;;;;;2.20;100.00;98130.34;18560914;32;20048;-64
2022/11/05 23:34:54;;;;;;;5.40;3.93;;;;;;;2.17;100.00;98134.25;18546132;32;20071;-64
2022/11/05 23:55:18;;;;;;;4.80;3.63;;;;;;;2.22;100.00;98162.16;18560062;32;20379;-64
